Fergus Falls, Minnesota
Current Conditions -  °F | °C
As of 11:14 AM on Thursday 27 Nov 2014 (Local Time) from KFFM Reporting Station
Clear Clear  
Wind Chill: -12°   Ceiling: Unl
Heat Index:   Visibility: 10mi
Dew Point: -9°   Wind: 6mph
Humidity: 66%   Direction: 120°ESE
Pressure: 30.48"   Gusts: NA
Location:  46.28°N, 96.07°W
Report Text: KFFM 271714Z AUTO 12005KT 10SM CLR M18/M23 A3048 RMK AO2
Loading
Personal Weather Stations






























Interactive Weather Map New forecast layout! Learn more

10-Day Weather Forecast

Advertisements
Track Severe Weather on mobile